Randsburg, California
Current Conditions -  °F | °C
As of 8:56 AM on Tuesday 27 Jan 2015 (Local Time) from KNID Reporting Station
Overcast Overcast  
Wind Chill: 50°   Ceiling: 2200
Heat Index: 50°   Visibility: 7mi
Dew Point: 48°   Wind: 0mph
Humidity: 93%   Direction: NA
Pressure: 30.24"   Gusts: NA
Location:  35.37°N, 117.66°W
Report Text: KNID 271656Z 00000KT 7SM FEW002 BKN022 OVC049 10/09 A3024 RMK AO2 SLP243 FG BNK W-N T01000089 $
Loading
Personal Weather Stations






























Interactive Weather Map New forecast layout! Learn more

10-Day Weather Forecast

Advertisements
Track Severe Weather on mobile